• Join FlightAware (Why Join?)
  • Login
  • US Flag 
07:48PM EDT


 

Airport Tracker/Info


-or-


 

Live Flight TrackerFlight Track Log ✈ EJA831 ✈ 04-May-2013 ✈ KUGN - KMSN

Flight Track Log - Related Links

Times and Time Zones

All times are in EDT time to prevent confusion due to time zone crossing. See the EJA831 flight status page for this flight to view local times or setup timezone preferences in your user account.

Time Position Orientation Groundspeed Altitude Reporting Facility
EDT Latitude Longitude Course Direction KTS MPH feet Rate Location/Type
09:24AM 42.4333 -87.8167 336° Northwest 190 219 2,500  Level Chicago TRACON
09:26AM 42.5033 -87.7822 20° North 233 268 5,900 1,260 Climbing Chicago Center
09:27AM 42.5764 -87.8031 348° North 272 313 6,000  Climbing Chicago Center
09:28AM 42.6594 -87.8578 334° Northwest 285 328 6,000  Level Chicago Center
09:29AM 42.7311 -87.9067 333° Northwest 286 329 6,000  Level Chicago Center
09:30AM 42.7091 -88.0384 336° Northwest  Level FlightAware Approximate
09:30AM 42.7631 -88.0122 292° West 294 338 6,000  Level Chicago Center
09:31AM 42.7925 -88.1158 291° West 292 336 6,000  Level Chicago Center
09:32AM 42.8217 -88.2197 291° West 294 338 6,000 -840 Level Chicago Center
09:33AM 42.8519 -88.3192 293° West 288 331 4,300 -1,020 Descending Chicago Center
09:34AM 42.8778 -88.4108 291° West 268 308 4,000 -180 Descending Chicago Center
09:35AM 42.9050 -88.5053 292° West 266 306 4,000  Level Chicago Center
09:36AM 42.9331 -88.6036 291° West 271 312 4,000  Level Chicago Center
09:37AM 42.9658 -88.7194 291° West 276 318 4,000  Level Chicago Center
09:38AM 42.9939 -88.8186 291° West 278 320 4,000  Level Chicago Center
09:39AM 42.9983 -88.9183 274° West 267 307 4,000  Level Chicago Center
09:40AM 42.9981 -89.0172 270° West 263 303 4,000  Level Chicago Center
09:42AM 42.9981 -89.1172 270° West 262 302 4,000 -120 Level Chicago Center
09:43AM 43.0006 -89.2139 272° West 258 297 3,800 -660 Descending Chicago Center
09:44AM 43.0028 -89.3017 272° West 246 283 2,700 -600 Descending Chicago Center
09:45AM 43.0386 -89.3367 324° Northwest 187 215 2,600 -300 Descending Chicago Center
09:46AM 43.0697 -89.3483 345° North 141 162 2,100 -660 Descending Chicago Center
09:47AM 43.1064 -89.3444 North 120 138 1,300 -540 Descending Chicago Center
09:48AM 43.1331 -89.3431 North 118 136 1,100 -240 Descending Chicago Center
09:50AM 43.1333 -89.3333 270° West  Level FlightAware Approximate